Time;durP1;ratioP1;P1;durP2;ratioP2;P2;SDS_P1;SDS_P2;PMS_P1;PMS_P2;Temp;Humidity;BMP_temperature;BMP_pressure;BME280_temperature;BME280_humidity;BME280_pressure;Samples;Min_cycle;Max_cycle;Signal;HPM_P1;HPM_P2
2021/09/03 17:19:15;;;;;;;;;;;17.40;62.60;;;;;;5091881;27;20364;-91
2021/09/03 17:21:40;;;;;;;;;;;16.90;64.20;;;;;;5091730;28;19972;-90
2021/09/03 17:24:06;;;;;;;;;;;16.90;65.40;;;;;;5090043;28;20409;-91
2021/09/03 17:26:32;;;;;;;;;;;16.90;66.10;;;;;;5085938;28;19999;-92
2021/09/03 17:28:58;;;;;;;;;;;16.90;66.60;;;;;;5118200;28;19950;-93
2021/09/03 17:31:25;;;;;;;;;;;16.90;66.90;;;;;;5091106;28;19915;-91
2021/09/03 17:33:51;;;;;;;;;;;16.90;67.00;;;;;;5090208;28;19909;-90
2021/09/03 17:36:17;;;;;;;;;;;17.00;67.20;;;;;;5084354;28;19920;-89
2021/09/03 17:38:42;;;;;;;;;;;17.00;67.30;;;;;;5111095;28;19913;-88
2021/09/03 17:41:08;;;;;;;;;;;17.00;67.40;;;;;;5069821;28;19909;-88
2021/09/03 17:43:37;;;;;;;;;;;17.00;67.40;;;;;;5103602;28;20015;-90
2021/09/03 17:46:03;;;;;;;;;;;17.00;67.50;;;;;;5069772;28;19912;-88
2021/09/03 17:48:28;;;;;;;;;;;17.00;67.60;;;;;;5069726;28;20378;-91
2021/09/03 17:50:54;;;;;;;;;;;17.00;67.80;;;;;;5074782;28;19913;-90
2021/09/03 17:53:20;;;;;;;;;;;17.00;67.70;;;;;;5103497;28;19920;-90
2021/09/03 17:55:46;;;;;;;;;;;16.90;67.70;;;;;;5070879;28;19909;-90
2021/09/03 17:58:13;;;;;;;;;;;16.90;67.70;;;;;;5069461;28;19913;-92
2021/09/03 18:00:39;;;;;;;;;;;16.90;67.80;;;;;;5070708;28;19967;-90
2021/09/03 18:03:04;;;;;;;;;;;16.80;68.00;;;;;;5070986;28;20345;-90
2021/09/03 18:05:30;;;;;;;;;;;16.80;68.30;;;;;;5069296;28;20369;-89
2021/09/03 18:07:55;;;;;;;;;;;16.70;68.40;;;;;;5076252;28;19916;-90
2021/09/03 18:10:21;;;;;;;;;;;16.70;68.70;;;;;;5090613;28;20392;-90
2021/09/03 18:12:48;;;;;;;;;;;16.60;68.80;;;;;;5091974;28;19912;-89
2021/09/03 18:15:14;;;;;;;;;;;16.60;68.90;;;;;;5087227;28;19962;-89
2021/09/03 18:17:40;;;;;;;;;;;16.60;69.00;;;;;;5111478;27;19931;-90
2021/09/03 18:20:06;;;;;;;;;;;16.50;69.20;;;;;;5102290;28;19916;-90
2021/09/03 18:22:32;;;;;;;;;;;16.40;69.40;;;;;;5098333;28;19908;-91
2021/09/03 18:24:57;;;;;;;;;;;16.40;69.60;;;;;;5070081;28;19988;-88
2021/09/03 18:27:23;;;;;;;;;;;16.30;69.70;;;;;;5069892;28;19913;-88
2021/09/03 18:29:48;;;;;;;;;;;16.30;69.90;;;;;;5061331;28;19909;-88
2021/09/03 18:32:14;;;;;;;;;;;16.20;70.10;;;;;;5089077;28;20595;-87
2021/09/03 18:34:40;;;;;;;;;;;16.10;70.40;;;;;;5056710;28;19915;-88
2021/09/03 18:37:05;;;;;;;;;;;16.10;70.70;;;;;;5056702;28;19912;-88
2021/09/03 18:39:32;;;;;;;;;;;16.00;70.80;;;;;;5056647;28;19916;-88
2021/09/03 18:41:58;;;;;;;;;;;16.00;71.20;;;;;;5070888;28;20300;-88
2021/09/03 18:44:24;;;;;;;;;;;15.90;71.40;;;;;;5076822;28;19909;-89
2021/09/03 18:46:50;;;;;;;;;;;15.90;71.50;;;;;;5074932;28;19938;-87
2021/09/03 18:49:15;;;;;;;;;;;15.80;71.60;;;;;;5071751;28;20451;-89
2021/09/03 18:51:41;;;;;;;;;;;15.80;71.80;;;;;;5069838;28;19917;-89
2021/09/03 18:54:06;;;;;;;;;;;15.70;71.90;;;;;;5062894;28;19916;-89
2021/09/03 18:56:32;;;;;;;;;;;15.70;72.00;;;;;;5056932;28;20395;-89
2021/09/03 18:58:57;;;;;;;;;;;15.60;72.30;;;;;;5072869;28;19909;-89
2021/09/03 19:01:25;;;;;;;;;;;15.50;72.50;;;;;;5073988;28;19921;-87
2021/09/03 19:03:51;;;;;;;;;;;15.50;72.70;;;;;;5074831;28;19948;-86
2021/09/03 19:06:17;;;;;;;;;;;15.40;72.90;;;;;;5074542;28;20253;-86
2021/09/03 19:08:42;;;;;;;;;;;15.40;73.20;;;;;;5075729;28;19918;-88
2021/09/03 19:11:08;;;;;;;;;;;15.30;73.50;;;;;;5075633;28;19922;-87
2021/09/03 19:13:34;;;;;;;;;;;15.20;73.60;;;;;;5075670;28;19917;-87
2021/09/03 19:16:00;;;;;;;;;;;15.20;73.80;;;;;;5074226;28;19916;-87
2021/09/03 19:18:26;;;;;;;;;;;15.10;73.90;;;;;;5074112;28;20383;-87
2021/09/03 19:20:51;;;;;;;;;;;15.00;74.10;;;;;;5075518;28;19948;-87
2021/09/03 19:23:17;;;;;;;;;;;15.10;74.60;;;;;;5074237;28;19908;-87
2021/09/03 19:25:43;;;;;;;;;;;15.00;74.60;;;;;;5076042;28;19916;-87
2021/09/03 19:28:09;;;;;;;;;;;14.90;74.60;;;;;;5074930;28;19962;-87
2021/09/03 19:30:35;;;;;;;;;;;14.90;74.70;;;;;;5075763;28;19909;-86
2021/09/03 19:33:00;;;;;;;;;;;14.80;75.00;;;;;;5075302;28;19959;-87
2021/09/03 19:35:26;;;;;;;;;;;14.70;75.20;;;;;;5075502;28;19912;-87
2021/09/03 19:37:52;;;;;;;;;;;14.70;75.40;;;;;;5075734;28;20364;-88
2021/09/03 19:40:17;;;;;;;;;;;14.70;75.80;;;;;;5074557;28;19974;-91
2021/09/03 19:42:43;;;;;;;;;;;14.70;76.00;;;;;;5074510;28;19923;-90
2021/09/03 19:45:09;;;;;;;;;;;14.60;76.40;;;;;;5074889;28;19935;-90
2021/09/03 19:47:35;;;;;;;;;;;14.60;76.40;;;;;;5073531;28;19918;-89
2021/09/03 19:51:50;;;;;;;;;;;14.50;75.80;;;;;;5112217;27;19920;-90
2021/09/03 19:54:16;;;;;;;;;;;14.50;76.70;;;;;;5111798;28;19998;-90
2021/09/03 19:56:41;;;;;;;;;;;14.40;77.30;;;;;;5111564;28;19916;-88
2021/09/03 19:59:07;;;;;;;;;;;14.30;77.30;;;;;;5111811;28;19946;-91
2021/09/03 20:01:32;;;;;;;;;;;14.30;77.70;;;;;;5111519;28;19908;-89
2021/09/03 20:03:58;;;;;;;;;;;14.40;78.10;;;;;;5111145;28;20388;-87
2021/09/03 20:06:23;;;;;;;;;;;14.30;78.10;;;;;;5107023;28;19981;-87
2021/09/03 20:08:49;;;;;;;;;;;14.30;78.30;;;;;;5111277;28;20002;-88
2021/09/03 20:11:15;;;;;;;;;;;14.30;78.60;;;;;;5111181;28;19912;-86
2021/09/03 20:13:40;;;;;;;;;;;14.30;78.80;;;;;;5111134;28;19912;-85
2021/09/03 20:16:06;;;;;;;;;;;14.30;79.10;;;;;;5111376;28;20003;-86
2021/09/03 20:18:31;;;;;;;;;;;14.30;79.10;;;;;;5110165;28;19919;-85
2021/09/03 20:20:57;;;;;;;;;;;14.20;79.30;;;;;;5111481;28;20453;-85
2021/09/03 20:23:23;;;;;;;;;;;14.20;79.60;;;;;;5111539;28;19908;-86
2021/09/03 20:25:50;;;;;;;;;;;14.20;79.90;;;;;;5111350;28;19908;-87
2021/09/03 20:28:17;;;;;;;;;;;14.20;79.90;;;;;;5111851;28;19919;-89
2021/09/03 20:30:43;;;;;;;;;;;14.10;79.90;;;;;;5122819;28;20329;-87
2021/09/03 20:33:09;;;;;;;;;;;14.10;80.00;;;;;;5114774;28;19907;-87
2021/09/03 20:35:35;;;;;;;;;;;14.10;80.30;;;;;;5123331;28;20320;-87
2021/09/03 20:38:01;;;;;;;;;;;14.00;80.50;;;;;;5105357;28;19934;-88
2021/09/03 20:40:29;;;;;;;;;;;14.00;80.30;;;;;;5097539;28;19912;-86
2021/09/03 20:42:54;;;;;;;;;;;14.00;80.50;;;;;;5090771;28;19962;-87
2021/09/03 20:45:20;;;;;;;;;;;14.00;80.70;;;;;;5091145;28;19962;-87
2021/09/03 20:47:45;;;;;;;;;;;14.00;80.80;;;;;;5110894;28;19919;-87
2021/09/03 20:50:11;;;;;;;;;;;13.90;81.00;;;;;;5110702;28;20408;-88
2021/09/03 20:52:36;;;;;;;;;;;13.90;81.20;;;;;;5109228;28;20044;-87
